createdAt,value
2022-10-07T00:01:11.674Z,99.90
2022-10-07T00:03:40.356Z,99.90
2022-10-07T00:06:12.934Z,99.90
2022-10-07T00:08:43.346Z,99.90
2022-10-07T00:11:14.480Z,99.90
2022-10-07T00:13:43.721Z,99.90
2022-10-07T00:16:15.068Z,99.90
2022-10-07T00:18:43.816Z,99.90
2022-10-07T00:21:14.795Z,99.90
2022-10-07T00:23:44.548Z,99.90
2022-10-07T00:26:15.180Z,99.90
2022-10-07T00:28:44.308Z,99.90
2022-10-07T00:31:19.032Z,99.90
2022-10-07T00:33:47.678Z,99.90
2022-10-07T00:36:20.542Z,99.90
2022-10-07T00:39:02.546Z,99.90
2022-10-07T00:41:34.805Z,99.90
2022-10-07T00:44:41.962Z,99.90
2022-10-07T00:47:32.972Z,99.90
2022-10-07T00:50:09.256Z,99.90
2022-10-07T00:52:46.955Z,99.90
2022-10-07T00:55:21.488Z,99.90
2022-10-07T00:57:51.666Z,99.90
2022-10-07T01:00:20.086Z,99.90
2022-10-07T01:02:48.692Z,99.90
2022-10-07T01:05:17.163Z,99.90
2022-10-07T01:07:48.094Z,99.90
2022-10-07T01:10:19.403Z,99.90
2022-10-07T01:13:13.418Z,99.90
2022-10-07T01:15:59.205Z,99.90
2022-10-07T01:18:59.346Z,99.90
2022-10-07T01:22:08.673Z,99.90
2022-10-07T01:24:54.986Z,99.90
2022-10-07T01:27:26.502Z,99.90
2022-10-07T01:30:04.754Z,99.90
2022-10-07T01:32:46.765Z,99.90
2022-10-07T01:35:21.956Z,99.90
2022-10-07T01:37:54.372Z,99.90
2022-10-07T01:40:39.373Z,99.90
2022-10-07T01:43:07.942Z,99.90
2022-10-07T01:45:39.673Z,99.90
2022-10-07T01:48:08.508Z,99.90
2022-10-07T01:50:38.051Z,99.90
2022-10-07T01:53:36.860Z,99.90
2022-10-07T01:56:35.729Z,99.90
2022-10-07T01:59:44.471Z,99.90
2022-10-07T02:02:28.155Z,99.90
2022-10-07T02:05:18.171Z,99.90
2022-10-07T02:07:53.939Z,99.90
2022-10-07T02:10:31.685Z,99.90
2022-10-07T02:13:26.286Z,99.90
2022-10-07T02:16:09.525Z,99.90
2022-10-07T02:18:42.191Z,99.90
2022-10-07T02:21:11.771Z,99.90
2022-10-07T02:23:43.851Z,99.90
2022-10-07T02:26:15.184Z,99.90
2022-10-07T02:28:45.754Z,99.90
2022-10-07T02:31:16.063Z,99.90
2022-10-07T02:33:46.596Z,99.90
2022-10-07T02:36:20.369Z,99.90
2022-10-07T02:38:48.754Z,99.90
2022-10-07T02:41:50.021Z,99.90
2022-10-07T02:44:49.705Z,99.90
2022-10-07T02:47:43.531Z,99.90
2022-10-07T02:50:15.339Z,99.90
2022-10-07T02:52:45.958Z,99.90
2022-10-07T02:55:22.387Z,99.90
2022-10-07T02:57:54.727Z,99.90
2022-10-07T03:00:24.318Z,99.90
2022-10-07T03:03:04.539Z,99.90
2022-10-07T03:05:41.920Z,99.90
2022-10-07T03:08:11.447Z,99.90
2022-10-07T03:10:42.062Z,99.90
2022-10-07T03:13:12.485Z,99.90
2022-10-07T03:15:44.076Z,99.90
2022-10-07T03:18:17.287Z,99.90
2022-10-07T03:20:45.641Z,99.90
2022-10-07T03:23:13.713Z,99.90
2022-10-07T03:25:41.875Z,99.90
2022-10-07T03:28:10.415Z,99.90
2022-10-07T03:30:38.599Z,99.90
2022-10-07T03:33:06.760Z,99.90
2022-10-07T03:35:35.138Z,99.90
2022-10-07T03:38:03.427Z,99.90
2022-10-07T03:40:31.923Z,99.90
2022-10-07T03:43:00.226Z,99.90
2022-10-07T03:45:28.620Z,99.90
2022-10-07T03:47:57.665Z,99.90
2022-10-07T03:50:27.738Z,99.90
2022-10-07T03:52:56.533Z,99.90
2022-10-07T03:55:24.840Z,99.90
2022-10-07T03:57:58.576Z,99.90
2022-10-07T04:00:29.766Z,99.90
2022-10-07T04:02:59.941Z,99.90
2022-10-07T04:05:28.293Z,99.90
2022-10-07T04:07:56.662Z,99.90
2022-10-07T04:10:25.067Z,99.90
2022-10-07T04:12:53.987Z,99.90
2022-10-07T04:15:22.517Z,99.90
2022-10-07T04:17:54.477Z,99.90
2022-10-07T04:20:22.711Z,99.90
2022-10-07T04:22:50.889Z,99.90
2022-10-07T04:25:20.296Z,99.90
2022-10-07T04:27:55.594Z,99.90
2022-10-07T04:30:27.615Z,99.90
2022-10-07T04:32:55.895Z,99.90
2022-10-07T04:35:25.548Z,99.90
2022-10-07T04:37:55.494Z,99.90
2022-10-07T04:40:26.284Z,99.90
2022-10-07T04:42:56.045Z,99.90
2022-10-07T04:45:24.393Z,99.90
2022-10-07T04:47:52.593Z,99.90
2022-10-07T04:50:20.927Z,99.90
2022-10-07T04:52:49.599Z,99.90
2022-10-07T04:55:18.184Z,99.90
2022-10-07T04:57:46.586Z,99.90
2022-10-07T05:00:15.420Z,99.90
2022-10-07T05:02:45.945Z,99.90
2022-10-07T05:05:14.285Z,99.90
2022-10-07T05:07:42.618Z,99.90
2022-10-07T05:10:11.586Z,99.90
2022-10-07T05:12:39.847Z,99.90
2022-10-07T05:15:08.135Z,99.90
2022-10-07T05:17:37.334Z,99.90
2022-10-07T05:20:06.123Z,99.90
2022-10-07T05:22:35.133Z,99.90
2022-10-07T05:25:03.460Z,99.90
2022-10-07T05:27:32.885Z,99.90
2022-10-07T05:30:01.257Z,99.90
2022-10-07T05:32:31.821Z,99.90
2022-10-07T05:35:00.133Z,99.90
2022-10-07T05:37:29.035Z,99.90
2022-10-07T05:39:57.318Z,99.90
2022-10-07T05:42:25.478Z,99.90
2022-10-07T05:44:57.323Z,99.90
2022-10-07T05:47:25.887Z,99.90
2022-10-07T05:49:54.948Z,99.90
2022-10-07T05:52:23.325Z,99.90
2022-10-07T05:54:52.420Z,99.90
2022-10-07T05:57:21.463Z,99.90
2022-10-07T05:59:50.498Z,99.90
2022-10-07T06:02:19.862Z,99.90
2022-10-07T06:04:50.286Z,99.90
2022-10-07T06:07:22.043Z,99.90
2022-10-07T06:09:53.834Z,99.90
2022-10-07T06:12:22.396Z,99.90
2022-10-07T06:14:52.953Z,99.90
2022-10-07T06:17:21.293Z,99.90
2022-10-07T06:19:52.039Z,99.90
2022-10-07T06:22:22.379Z,99.90
2022-10-07T06:24:50.887Z,99.90
2022-10-07T06:27:19.849Z,99.90
2022-10-07T06:29:48.050Z,99.90
2022-10-07T06:32:16.190Z,99.90
2022-10-07T06:34:45.267Z,99.90
2022-10-07T06:37:14.392Z,99.90
2022-10-07T06:39:42.950Z,99.90
2022-10-07T06:42:11.056Z,99.90
2022-10-07T06:44:39.092Z,99.90
2022-10-07T06:47:11.841Z,99.90
2022-10-07T06:49:42.925Z,99.90
2022-10-07T06:52:11.170Z,99.90
2022-10-07T06:54:40.099Z,99.90
2022-10-07T06:57:33.010Z,99.90
2022-10-07T06:59:56.951Z,99.90
2022-10-07T07:02:27.617Z,99.90
2022-10-07T07:04:57.755Z,99.90
2022-10-07T07:07:27.826Z,99.90
2022-10-07T07:09:56.468Z,99.90
2022-10-07T07:12:24.736Z,99.90
2022-10-07T07:14:53.641Z,99.90
2022-10-07T07:17:22.681Z,99.90
2022-10-07T07:19:50.995Z,99.90
2022-10-07T07:22:20.107Z,99.90
2022-10-07T07:24:49.955Z,99.90
2022-10-07T07:27:18.195Z,99.90
2022-10-07T07:29:46.800Z,99.90
2022-10-07T07:32:15.340Z,99.90
2022-10-07T07:34:44.836Z,99.90
2022-10-07T07:37:19.107Z,99.90
2022-10-07T07:39:51.825Z,99.90
2022-10-07T07:42:19.947Z,99.90
2022-10-07T07:44:49.175Z,99.90
2022-10-07T07:47:18.925Z,99.90
2022-10-07T07:49:50.084Z,99.90
2022-10-07T07:52:31.826Z,99.90
2022-10-07T07:55:01.795Z,99.90
2022-10-07T07:57:31.193Z,99.90
2022-10-07T08:00:04.879Z,99.90
2022-10-07T08:02:41.891Z,99.90
2022-10-07T08:05:14.262Z,99.90
2022-10-07T08:07:42.811Z,99.90
2022-10-07T08:10:12.030Z,99.90
2022-10-07T08:12:40.592Z,99.90
2022-10-07T08:15:09.508Z,99.90
2022-10-07T08:17:38.398Z,99.90
2022-10-07T08:20:07.901Z,99.90
2022-10-07T08:22:36.376Z,99.90
2022-10-07T08:25:04.772Z,99.90
2022-10-07T08:27:33.234Z,99.90
2022-10-07T08:30:01.678Z,99.90
2022-10-07T08:32:29.951Z,99.90
2022-10-07T08:34:58.139Z,99.90
2022-10-07T08:37:26.534Z,99.90
2022-10-07T08:39:54.770Z,99.90
2022-10-07T08:42:37.781Z,95.40
2022-10-07T08:45:07.522Z,94.30
2022-10-07T08:47:42.472Z,91.60
2022-10-07T08:50:20.330Z,92.10
2022-10-07T08:52:53.586Z,92.80
2022-10-07T08:55:32.045Z,91.20
2022-10-07T08:58:32.322Z,89.20
2022-10-07T09:01:08.206Z,87.80
2022-10-07T09:03:45.853Z,85.00
2022-10-07T09:06:28.339Z,83.20
2022-10-07T09:09:06.786Z,80.80
2022-10-07T09:11:35.761Z,91.90
2022-10-07T09:14:32.919Z,99.30
2022-10-07T09:17:21.963Z,99.90
2022-10-07T09:19:53.002Z,99.90
2022-10-07T09:22:30.811Z,99.90
2022-10-07T09:25:14.172Z,99.90
2022-10-07T09:27:42.609Z,99.90
2022-10-07T09:30:14.274Z,99.90
2022-10-07T09:32:49.757Z,99.90
2022-10-07T09:35:23.938Z,99.90
2022-10-07T09:38:04.552Z,99.90
2022-10-07T09:40:37.029Z,99.90
2022-10-07T09:43:18.324Z,99.90
2022-10-07T09:45:47.368Z,99.90
2022-10-07T09:48:24.745Z,99.90
2022-10-07T09:51:11.529Z,99.90
2022-10-07T09:53:56.550Z,99.90
2022-10-07T09:56:40.922Z,99.90
2022-10-07T09:59:21.492Z,99.90
2022-10-07T10:01:56.486Z,99.90
2022-10-07T10:04:32.080Z,99.90
2022-10-07T10:07:17.966Z,99.90
2022-10-07T10:09:51.839Z,99.90
2022-10-07T10:12:21.886Z,99.90
2022-10-07T10:14:54.403Z,99.90
2022-10-07T10:17:35.627Z,99.90
2022-10-07T10:20:30.379Z,99.90
2022-10-07T10:23:00.895Z,99.90
2022-10-07T10:25:32.517Z,99.90
2022-10-07T10:28:26.500Z,99.90
2022-10-07T10:31:03.475Z,99.90
2022-10-07T10:33:34.531Z,99.90
2022-10-07T10:36:22.487Z,99.90
2022-10-07T10:39:12.323Z,99.90
2022-10-07T10:41:52.677Z,99.90
2022-10-07T10:44:46.625Z,99.90
2022-10-07T10:47:30.281Z,99.90
2022-10-07T10:50:23.297Z,99.90
2022-10-07T10:53:26.685Z,99.90
2022-10-07T10:56:19.167Z,99.90
2022-10-07T10:59:03.824Z,99.90
2022-10-07T11:01:41.430Z,99.90
2022-10-07T11:04:25.680Z,99.90
2022-10-07T11:07:18.775Z,99.90
2022-10-07T11:09:53.577Z,99.90
2022-10-07T11:12:36.388Z,99.90
2022-10-07T11:15:36.550Z,99.90
2022-10-07T11:18:14.820Z,99.90
2022-10-07T11:20:44.905Z,99.90
2022-10-07T11:23:18.696Z,99.90
2022-10-07T11:25:57.053Z,99.90
2022-10-07T11:28:29.203Z,99.90
2022-10-07T11:31:15.361Z,99.90
2022-10-07T11:34:04.574Z,99.90
2022-10-07T11:36:57.898Z,99.90
2022-10-07T11:39:26.509Z,99.90
2022-10-07T11:42:23.826Z,99.90
2022-10-07T11:45:02.550Z,99.90
2022-10-07T11:47:51.105Z,99.90
2022-10-07T11:50:32.400Z,99.90
2022-10-07T11:53:22.086Z,99.90
2022-10-07T11:56:16.694Z,99.90
2022-10-07T11:58:45.852Z,99.90
2022-10-07T12:01:29.153Z,99.90
2022-10-07T12:04:12.422Z,99.90
2022-10-07T12:06:40.616Z,99.90
2022-10-07T12:09:45.689Z,99.90
2022-10-07T12:12:14.500Z,99.90
2022-10-07T12:14:44.641Z,99.90
2022-10-07T12:17:21.537Z,99.90
2022-10-07T12:20:41.619Z,99.90
2022-10-07T12:23:18.652Z,99.90
2022-10-07T12:25:56.956Z,99.90
2022-10-07T12:28:45.377Z,99.90
2022-10-07T12:31:16.648Z,99.90
2022-10-07T12:33:45.022Z,99.90
2022-10-07T12:36:22.263Z,99.90
2022-10-07T12:38:59.704Z,99.90
2022-10-07T12:41:29.098Z,99.90
2022-10-07T12:44:00.393Z,99.90
2022-10-07T12:46:34.479Z,99.90
2022-10-07T12:49:24.586Z,99.90
2022-10-07T12:51:59.677Z,99.90
2022-10-07T12:54:35.368Z,99.90
2022-10-07T12:57:10.755Z,99.90
2022-10-07T12:59:51.409Z,99.90
2022-10-07T13:02:53.365Z,99.90
2022-10-07T13:05:40.088Z,99.90
2022-10-07T13:08:17.087Z,99.90
2022-10-07T13:10:45.398Z,99.90
2022-10-07T13:13:43.006Z,99.90
2022-10-07T13:16:29.762Z,99.90
2022-10-07T13:19:19.635Z,99.90
2022-10-07T13:22:00.565Z,99.90
2022-10-07T13:24:30.398Z,99.90
2022-10-07T13:26:59.971Z,99.90
2022-10-07T13:29:33.165Z,99.90
2022-10-07T13:32:05.932Z,99.90
2022-10-07T13:34:34.982Z,99.90
2022-10-07T13:37:03.585Z,99.90
2022-10-07T13:39:31.875Z,99.90
2022-10-07T13:42:01.015Z,99.90
2022-10-07T13:44:32.519Z,99.90
2022-10-07T13:47:07.591Z,99.90
2022-10-07T13:49:43.002Z,99.90
2022-10-07T13:52:45.398Z,99.90
2022-10-07T13:55:30.055Z,99.90
2022-10-07T13:58:01.978Z,99.90
2022-10-07T14:00:32.115Z,99.90
2022-10-07T14:03:01.195Z,99.90
2022-10-07T14:05:31.807Z,99.90
2022-10-07T14:08:11.488Z,99.90
2022-10-07T14:10:54.776Z,99.90
2022-10-07T14:13:23.520Z,99.90
2022-10-07T14:15:54.859Z,99.90
2022-10-07T14:18:23.810Z,99.90
2022-10-07T14:21:16.660Z,99.90
2022-10-07T14:23:46.703Z,99.90
2022-10-07T14:26:15.130Z,99.90
2022-10-07T14:28:43.769Z,99.90
2022-10-07T14:31:19.527Z,99.90
2022-10-07T14:34:01.660Z,99.90
2022-10-07T14:36:30.110Z,99.90
2022-10-07T14:38:58.523Z,99.90
2022-10-07T14:41:29.186Z,99.90
2022-10-07T14:43:57.846Z,99.90
2022-10-07T14:46:27.306Z,99.90
2022-10-07T14:48:56.357Z,99.90
2022-10-07T14:51:28.457Z,99.90
2022-10-07T14:54:07.990Z,99.90
2022-10-07T14:56:36.991Z,99.90
2022-10-07T14:59:10.063Z,99.90
2022-10-07T15:01:38.324Z,99.90
2022-10-07T15:04:06.602Z,99.90
2022-10-07T15:06:35.954Z,99.90
2022-10-07T15:09:04.181Z,99.90
2022-10-07T15:11:32.493Z,99.90
2022-10-07T15:14:00.549Z,99.90
2022-10-07T15:16:29.213Z,99.90
2022-10-07T15:18:57.576Z,99.90
2022-10-07T15:21:25.927Z,99.90
2022-10-07T15:23:55.186Z,99.90
2022-10-07T15:26:25.265Z,99.90
2022-10-07T15:28:55.507Z,99.90
2022-10-07T15:31:26.117Z,99.90
2022-10-07T15:33:55.511Z,99.90
2022-10-07T15:36:25.192Z,99.90
2022-10-07T15:38:53.769Z,99.90
2022-10-07T15:41:38.811Z,99.90
2022-10-07T15:44:12.944Z,99.90
2022-10-07T15:46:41.297Z,99.90
2022-10-07T15:49:09.655Z,99.90
2022-10-07T15:51:37.994Z,99.90
2022-10-07T15:54:07.147Z,99.90
2022-10-07T15:56:35.420Z,99.90
2022-10-07T15:59:03.487Z,99.90
2022-10-07T16:01:32.284Z,99.90
2022-10-07T16:04:02.267Z,99.90
2022-10-07T16:06:33.686Z,99.90
2022-10-07T16:09:02.828Z,99.90
2022-10-07T16:11:32.632Z,99.90
2022-10-07T16:14:04.367Z,99.90
2022-10-07T16:16:33.191Z,99.90
2022-10-07T16:19:01.940Z,99.90
2022-10-07T16:21:32.747Z,99.90
2022-10-07T16:24:08.438Z,99.90
2022-10-07T16:26:36.774Z,99.90
2022-10-07T16:29:07.565Z,99.90
2022-10-07T16:31:38.868Z,99.90
2022-10-07T16:34:07.683Z,99.90
2022-10-07T16:36:36.374Z,99.90
2022-10-07T16:39:08.444Z,99.90
2022-10-07T16:41:37.690Z,99.90
2022-10-07T16:44:05.890Z,99.90
2022-10-07T16:46:34.320Z,99.90
2022-10-07T16:49:04.478Z,99.90
2022-10-07T16:51:35.236Z,99.90
2022-10-07T16:54:06.214Z,99.90
2022-10-07T16:56:36.205Z,99.90
2022-10-07T16:59:07.586Z,99.90
2022-10-07T17:01:36.230Z,99.90
2022-10-07T17:04:04.535Z,99.90
2022-10-07T17:06:33.907Z,99.90
2022-10-07T17:09:02.227Z,99.90
2022-10-07T17:11:32.283Z,99.90
2022-10-07T17:14:03.322Z,99.90
2022-10-07T17:16:37.908Z,99.90
2022-10-07T17:19:07.307Z,99.90
2022-10-07T17:21:36.147Z,99.90
2022-10-07T17:24:05.341Z,99.90
2022-10-07T17:26:33.730Z,99.90
2022-10-07T17:29:05.265Z,99.90
2022-10-07T17:31:34.448Z,99.90
2022-10-07T17:34:02.852Z,99.90
2022-10-07T17:36:31.187Z,99.90
2022-10-07T17:39:00.192Z,99.90
2022-10-07T17:41:33.819Z,99.90
2022-10-07T17:44:04.379Z,99.90
2022-10-07T17:46:33.601Z,99.90
2022-10-07T17:49:02.856Z,99.90
2022-10-07T17:51:32.441Z,99.90
2022-10-07T17:54:02.494Z,99.90
2022-10-07T17:56:31.760Z,99.90
2022-10-07T17:59:00.559Z,99.90
2022-10-07T18:01:31.287Z,99.90
2022-10-07T18:04:04.778Z,99.90
2022-10-07T18:06:35.627Z,99.90
2022-10-07T18:09:09.186Z,99.90
2022-10-07T18:11:37.561Z,99.90
2022-10-07T18:14:06.490Z,99.90
2022-10-07T18:16:36.072Z,99.90
2022-10-07T18:19:04.282Z,99.90
2022-10-07T18:21:32.496Z,99.90
2022-10-07T18:24:00.746Z,99.90
2022-10-07T18:26:28.874Z,99.90
2022-10-07T18:28:57.013Z,99.90
2022-10-07T18:31:25.252Z,99.90
2022-10-07T18:33:53.420Z,99.90
2022-10-07T18:36:21.843Z,99.90
2022-10-07T18:38:49.960Z,99.90
2022-10-07T18:41:19.249Z,99.90
2022-10-07T18:43:47.533Z,99.90
2022-10-07T18:46:18.697Z,99.90
2022-10-07T18:48:47.567Z,99.90
2022-10-07T18:51:16.980Z,99.90
2022-10-07T18:53:46.464Z,99.90
2022-10-07T18:56:21.100Z,99.90
2022-10-07T18:58:51.709Z,99.90
2022-10-07T19:01:22.832Z,99.90
2022-10-07T19:03:59.580Z,99.90
2022-10-07T19:06:29.686Z,99.90
2022-10-07T19:09:00.702Z,99.90
2022-10-07T19:11:29.129Z,99.90
2022-10-07T19:13:58.128Z,99.90
2022-10-07T19:16:27.869Z,99.90
2022-10-07T19:18:59.758Z,99.90
2022-10-07T19:21:28.887Z,99.90
2022-10-07T19:23:58.772Z,99.90
2022-10-07T19:26:29.962Z,99.90
2022-10-07T19:28:58.678Z,99.90
2022-10-07T19:31:33.077Z,99.90
2022-10-07T19:34:03.386Z,99.90
2022-10-07T19:36:33.967Z,99.90
2022-10-07T19:39:03.300Z,99.90
2022-10-07T19:41:33.849Z,99.90
2022-10-07T19:44:02.940Z,99.90
2022-10-07T19:46:32.664Z,99.90
2022-10-07T19:49:02.248Z,99.90
2022-10-07T19:51:32.302Z,99.90
2022-10-07T19:54:02.400Z,99.90
2022-10-07T19:56:32.943Z,99.90
2022-10-07T19:59:03.790Z,99.90
2022-10-07T20:01:34.592Z,99.90
2022-10-07T20:04:11.059Z,99.90
2022-10-07T20:06:39.276Z,99.90
2022-10-07T20:09:08.836Z,99.90
2022-10-07T20:11:37.394Z,99.90
2022-10-07T20:14:05.442Z,99.90
2022-10-07T20:16:34.933Z,99.90
2022-10-07T20:19:05.888Z,99.90
2022-10-07T20:21:36.832Z,99.90
2022-10-07T20:24:06.487Z,99.90
2022-10-07T20:26:37.374Z,99.90
2022-10-07T20:29:08.336Z,99.90
2022-10-07T20:31:41.112Z,99.90
2022-10-07T20:34:15.438Z,99.90
2022-10-07T20:36:44.191Z,99.90
2022-10-07T20:39:20.284Z,99.90
2022-10-07T20:41:49.961Z,99.90
2022-10-07T20:44:18.864Z,99.90
2022-10-07T20:46:47.036Z,99.90
2022-10-07T20:49:15.348Z,99.90
2022-10-07T20:51:43.760Z,99.90
2022-10-07T20:54:12.121Z,99.90
2022-10-07T20:56:40.303Z,99.90
2022-10-07T20:59:09.809Z,99.90
2022-10-07T21:01:38.719Z,99.90
2022-10-07T21:04:12.085Z,99.90
2022-10-07T21:06:40.662Z,99.90
2022-10-07T21:09:09.990Z,99.90
2022-10-07T21:11:38.487Z,99.90
2022-10-07T21:14:06.817Z,99.90
2022-10-07T21:16:35.403Z,99.90
2022-10-07T21:19:04.229Z,99.90
2022-10-07T21:21:32.485Z,99.90
2022-10-07T21:24:00.649Z,99.90
2022-10-07T21:26:28.961Z,99.90
2022-10-07T21:28:57.308Z,99.90
2022-10-07T21:31:25.403Z,99.90
2022-10-07T21:33:53.886Z,99.90
2022-10-07T21:36:24.015Z,99.90
2022-10-07T21:38:58.274Z,99.90
2022-10-07T21:41:29.987Z,99.90
2022-10-07T21:43:59.119Z,99.90
2022-10-07T21:46:29.207Z,99.90
2022-10-07T21:48:58.537Z,99.90
2022-10-07T21:51:27.574Z,99.90
2022-10-07T21:53:57.340Z,99.90
2022-10-07T21:56:27.194Z,99.90
2022-10-07T21:58:55.843Z,99.90
2022-10-07T22:01:25.326Z,99.90
2022-10-07T22:03:59.083Z,99.90
2022-10-07T22:06:28.631Z,99.90
2022-10-07T22:08:56.970Z,99.90
2022-10-07T22:11:25.028Z,99.90
2022-10-07T22:13:53.235Z,99.90
2022-10-07T22:16:22.406Z,99.90
2022-10-07T22:18:53.720Z,99.90
2022-10-07T22:21:28.027Z,99.90
2022-10-07T22:23:58.625Z,99.90
2022-10-07T22:26:29.564Z,99.90
2022-10-07T22:28:57.820Z,99.90
2022-10-07T22:31:26.589Z,99.90
2022-10-07T22:33:57.404Z,99.90
2022-10-07T22:36:26.530Z,99.90
2022-10-07T22:38:55.096Z,99.90
2022-10-07T22:41:24.701Z,99.90
2022-10-07T22:43:54.116Z,99.90
2022-10-07T22:46:28.140Z,99.90
2022-10-07T22:48:57.996Z,99.90
2022-10-07T22:51:26.963Z,99.90
2022-10-07T22:53:56.780Z,99.90
2022-10-07T22:56:26.881Z,99.90
2022-10-07T22:58:59.827Z,99.90
2022-10-07T23:01:30.229Z,99.90
2022-10-07T23:04:02.806Z,99.90
2022-10-07T23:06:32.745Z,99.90
2022-10-07T23:09:01.505Z,99.90
2022-10-07T23:11:30.347Z,99.90
2022-10-07T23:13:58.512Z,99.90
2022-10-07T23:16:29.967Z,99.90
2022-10-07T23:18:59.646Z,99.90
2022-10-07T23:21:30.041Z,99.90
2022-10-07T23:24:02.871Z,99.90
2022-10-07T23:26:33.026Z,99.90
2022-10-07T23:29:01.936Z,99.90
2022-10-07T23:31:31.896Z,99.90
2022-10-07T23:34:01.751Z,99.90
2022-10-07T23:36:30.196Z,99.90
2022-10-07T23:39:00.441Z,99.90
2022-10-07T23:41:30.386Z,99.90
2022-10-07T23:44:01.548Z,99.90
2022-10-07T23:46:31.546Z,99.90
2022-10-07T23:48:59.727Z,99.90
2022-10-07T23:51:29.340Z,99.90
2022-10-07T23:53:58.350Z,99.90
2022-10-07T23:56:26.757Z,99.90
2022-10-07T23:58:54.983Z,99.90
